Metar - Info de Aeroporto     EFOU Oulu Airport
Temperatura
0°C Temperatura
-3°C Ptº Orvalho
80% Humidade



Vento
6 M/S
13 MPH
21 KM/H
11 NÓS



260°
O
Condições Atuais

Pouco Nublado Pouco Nublado
Pressão 992.92 (hPa) - 29.32 (inHg)
Visibilidade 6.2 (milha) - 10 (km)
Aeroporto
Código-Aeropoto EFOU

Localização: Oulu Airport
Distância: 83 (km)

Metar:
EFOU 282320Z AUTO 26011KT 220V280 9999 FEW040 00/M03 Q0993

Hora: 29-01-2023 01:20 EET